Avalon, MO

10:57 PM CDT on September 19, 2014 (GMT -0500)
Northwest Chillicothe | Change Station
CLOSE
Current Station
Personal Weather Station
Location: Chillicothe, MO
Elevation: 843 ft
Nearby Weather Stations

Elev 843 ft 39.82 °N, 93.60 °W | Updated 7 seconds ago

Clear
Clear
67.3 °F
Feels Like 67.3 °F
N
0.4
Wind Variable Wind from South
Gusts 0.9 mph

Today
High -- | Low -- °F
--% Chance of Precip.
Yesterday
High -- | Low -- °F
Precip. -- in
6:59 AM 7:16 PM
Waning Crescent, 15% visible
Pressure 29.96 in
Visibility 7.0 miles
Clouds Clear
Dew Point Not available.
Humidity Not available.
Rainfall 0.00 in
Snow Depth Not available.
UV 0 out of 12
Pollen 5.40 out of 12
Air Quality Not available.
Flu Activity Not available.
METAR KGPH 200355Z AUTO 00000KT 7SM CLR 21/20 A2996 RMK AO2

More Conditions Fewer Conditions

Pressure 29.96 in
Visibility 7.0 miles
Clouds Clear
Dew Point Not available.
Humidity Not available.
Rainfall 0.00 in
Snow Depth Not available.
UV 0 out of 12
Pollen 5.40 out of 12
Air Quality Not available.
Flu Activity Not available.
METAR KGPH 200355Z AUTO 00000KT 7SM CLR 21/20 A2996 RMK AO2

More Conditions Fewer Conditions

10-Day Weather Forecast

Almanac

Astronomy

Sep. 19, 2014 Rise Set
Actual Time 6:59 AM CDT 7:16 PM CDT
Civil Twilight 6:32 AM CDT 7:43 PM CDT
Nautical Twilight 6:00 AM CDT 8:14 PM CDT
Astronomical Twilight 5:27 AM CDT 8:47 PM CDT
Moon 2:45 AM CDT (9/19) 4:45 PM CDT (9/19)
Length of Visible Light 13h 11m
Length of Day
12h 17m
Tomorrow will be 2m 35s shorter.
Waning Crescent, 15% of the Moon is Illuminated
Today
Waning Crescent
Sep 24
New
Oct 1
First Quarter
Oct 8
Full
Oct 15
Last Quarter

Today's Extremes

State Highs State Lows

Community

WunderPhotos

Upload Photos

1,754,777 photos uploaded!

WunderBlogs® & News

Nearby

Snow Depth

Station Depth Elevation
No new snow has been reported.

Earthquake Activity

City Distance Mag. Time & Date
No recent earthquake activity has been reported nearby.
Minimum magnitude displayed is 2.5.

Coastal Water Temperatures

Place Temperature
No Stations Reporting

Nearby Weather Stations